DLH33A EDDF-LEPA
Flight info
| Callsign | DLH33A |
|---|---|
| Flight time | N/A |
| Altitude | 35000 |
| Route | ANEKI2L ANEKI Y163 HERBI Y164 MOPAN DCT LUTIX/N0453F370 DCT BENOT DCT NEMOS DCT GEVEA DCT INCUS DCT BALSI DCT RETNO DCT TUPOX DCT MTG DCT DIVKO DCT VATIR DCT PIVUS DCT BODEQ DCT VERSO L129 LUNIK |
| Aircraft | A321/M-SDE2E3FGIJ1LORWXYZ/HB1 |
Departure
| Time | N/A |
|---|---|
| Airport | Frankfurt Main Airport (EDDF) |
Arrival
| Time | 2026-05-05 13:08 |
|---|---|
| Airport | Palma de Mallorca Airport (LEPA) |
| Time | Latitude | Longitude | Altitude | Speed | Heading |
|---|---|---|---|---|---|
| 2026-05-05 12:23 | 43.02251 | 4.75120 | 36951 ft | 391 kts | 212° |
| 2026-05-05 12:23 | 42.97468 | 4.71493 | 36923 ft | 395 kts | 212° |
| 2026-05-05 12:24 | 42.92638 | 4.67842 | 36921 ft | 399 kts | 212° |
| 2026-05-05 12:24 | 42.87770 | 4.64163 | 36925 ft | 401 kts | 212° |
| 2026-05-05 12:25 | 42.82882 | 4.60472 | 36944 ft | 402 kts | 212° |
| 2026-05-05 12:25 | 42.77981 | 4.56775 | 36985 ft | 403 kts | 212° |
| 2026-05-05 12:26 | 42.73065 | 4.53083 | 36980 ft | 404 kts | 212° |
| 2026-05-05 12:26 | 42.68139 | 4.49395 | 36982 ft | 404 kts | 212° |
| 2026-05-05 12:27 | 42.63210 | 4.45703 | 36981 ft | 405 kts | 212° |
| 2026-05-05 12:27 | 42.58308 | 4.42037 | 36978 ft | 405 kts | 212° |
| 2026-05-05 12:28 | 42.53376 | 4.38351 | 36981 ft | 405 kts | 212° |
| 2026-05-05 12:28 | 42.48442 | 4.34674 | 36977 ft | 404 kts | 212° |
| 2026-05-05 12:29 | 42.43513 | 4.31011 | 36977 ft | 404 kts | 212° |
| 2026-05-05 12:29 | 42.38595 | 4.27353 | 36980 ft | 403 kts | 212° |
| 2026-05-05 12:30 | 42.33679 | 4.23706 | 36983 ft | 403 kts | 212° |
| 2026-05-05 12:30 | 42.28768 | 4.20073 | 36968 ft | 402 kts | 213° |
| 2026-05-05 12:31 | 42.23866 | 4.16452 | 36988 ft | 401 kts | 213° |
| 2026-05-05 12:31 | 42.18969 | 4.12841 | 36986 ft | 401 kts | 213° |
| 2026-05-05 12:32 | 42.14901 | 4.09847 | 36976 ft | 401 kts | 213° |
| 2026-05-05 12:32 | 42.10003 | 4.06258 | 36952 ft | 400 kts | 213° |
| 2026-05-05 12:33 | 42.05113 | 4.02679 | 36963 ft | 400 kts | 213° |
| 2026-05-05 12:33 | 42.00228 | 3.99098 | 36967 ft | 400 kts | 213° |
| 2026-05-05 12:34 | 41.95345 | 3.95530 | 36969 ft | 399 kts | 213° |
| 2026-05-05 12:34 | 41.90133 | 3.92830 | 36938 ft | 411 kts | 197° |
| 2026-05-05 12:35 | 41.84494 | 3.91534 | 36959 ft | 411 kts | 197° |
| 2026-05-05 12:35 | 41.78857 | 3.90244 | 36967 ft | 411 kts | 197° |
| 2026-05-05 12:36 | 41.73224 | 3.88945 | 36970 ft | 411 kts | 197° |
| 2026-05-05 12:36 | 41.67596 | 3.87651 | 36955 ft | 410 kts | 197° |
| 2026-05-05 12:37 | 41.61965 | 3.86356 | 36966 ft | 410 kts | 197° |
| 2026-05-05 12:37 | 41.56380 | 3.85073 | 36970 ft | 410 kts | 197° |
| 2026-05-05 12:38 | 41.50754 | 3.83788 | 36974 ft | 410 kts | 197° |
| 2026-05-05 12:38 | 41.45098 | 3.82492 | 36954 ft | 409 kts | 197° |
| 2026-05-05 12:39 | 41.39482 | 3.81213 | 36971 ft | 409 kts | 197° |
| 2026-05-05 12:39 | 41.33905 | 3.79935 | 36987 ft | 409 kts | 197° |
| 2026-05-05 12:40 | 41.28293 | 3.78648 | 36955 ft | 410 kts | 197° |
| 2026-05-05 12:40 | 41.22675 | 3.77366 | 36965 ft | 409 kts | 197° |
| 2026-05-05 12:41 | 41.17058 | 3.76093 | 36967 ft | 409 kts | 197° |
| 2026-05-05 12:41 | 41.11726 | 3.73856 | 36969 ft | 400 kts | 207° |
| 2026-05-05 12:42 | 41.06541 | 3.71176 | 36496 ft | 401 kts | 207° |
| 2026-05-05 12:42 | 41.03951 | 3.69843 | 35907 ft | 397 kts | 206° |
| 2026-05-05 12:42 | 41.01392 | 3.68531 | 35338 ft | 392 kts | 206° |
| 2026-05-05 12:43 | 40.98858 | 3.67230 | 34727 ft | 389 kts | 206° |
| 2026-05-05 12:43 | 40.96354 | 3.65948 | 34318 ft | 382 kts | 206° |
| 2026-05-05 12:43 | 40.93899 | 3.64694 | 33896 ft | 375 kts | 206° |
| 2026-05-05 12:43 | 40.91484 | 3.63460 | 33457 ft | 369 kts | 207° |
| 2026-05-05 12:44 | 40.89110 | 3.62244 | 33037 ft | 362 kts | 207° |
| 2026-05-05 12:44 | 40.86781 | 3.61050 | 32631 ft | 356 kts | 207° |
| 2026-05-05 12:44 | 40.84492 | 3.59875 | 32207 ft | 349 kts | 207° |
| 2026-05-05 12:44 | 40.82249 | 3.58725 | 31824 ft | 343 kts | 207° |
| 2026-05-05 12:45 | 40.80046 | 3.57595 | 31445 ft | 337 kts | 207° |
| 2026-05-05 12:45 | 40.77876 | 3.56484 | 31064 ft | 332 kts | 207° |
| 2026-05-05 12:45 | 40.75739 | 3.55397 | 30683 ft | 327 kts | 207° |
| 2026-05-05 12:45 | 40.73635 | 3.54330 | 30316 ft | 322 kts | 207° |
| 2026-05-05 12:46 | 40.71555 | 3.53271 | 29934 ft | 319 kts | 207° |
| 2026-05-05 12:46 | 40.69493 | 3.52215 | 29543 ft | 317 kts | 207° |
| 2026-05-05 12:46 | 40.67431 | 3.51157 | 29185 ft | 322 kts | 207° |
| 2026-05-05 12:46 | 40.65288 | 3.50049 | 28809 ft | 337 kts | 207° |
| 2026-05-05 12:47 | 40.63118 | 3.48937 | 28437 ft | 341 kts | 207° |
| 2026-05-05 12:47 | 40.60908 | 3.47814 | 28054 ft | 341 kts | 207° |
| 2026-05-05 12:47 | 40.58698 | 3.46698 | 27680 ft | 340 kts | 207° |
| 2026-05-05 12:47 | 40.56495 | 3.45588 | 27319 ft | 338 kts | 207° |
| 2026-05-05 12:48 | 40.54301 | 3.44480 | 26952 ft | 337 kts | 207° |
| 2026-05-05 12:48 | 40.52111 | 3.43377 | 26597 ft | 336 kts | 206° |
| 2026-05-05 12:48 | 40.49930 | 3.42278 | 26240 ft | 335 kts | 206° |
| 2026-05-05 12:48 | 40.47756 | 3.41178 | 25869 ft | 334 kts | 206° |
| 2026-05-05 12:49 | 40.45587 | 3.40098 | 25457 ft | 334 kts | 204° |
| 2026-05-05 12:49 | 40.43299 | 3.39431 | 25049 ft | 341 kts | 193° |
| 2026-05-05 12:49 | 40.40901 | 3.39408 | 24613 ft | 348 kts | 185° |
| 2026-05-05 12:49 | 40.38483 | 3.39570 | 24196 ft | 348 kts | 185° |
| 2026-05-05 12:50 | 40.36072 | 3.39719 | 23762 ft | 346 kts | 185° |
| 2026-05-05 12:50 | 40.33672 | 3.39861 | 23281 ft | 345 kts | 185° |
| 2026-05-05 12:50 | 40.31285 | 3.39997 | 22820 ft | 343 kts | 185° |
| 2026-05-05 12:50 | 40.28909 | 3.40124 | 22368 ft | 341 kts | 185° |
| 2026-05-05 12:51 | 40.26543 | 3.40241 | 21914 ft | 339 kts | 185° |
| 2026-05-05 12:51 | 40.24194 | 3.40351 | 21471 ft | 337 kts | 185° |
| 2026-05-05 12:51 | 40.21858 | 3.40456 | 21030 ft | 335 kts | 185° |
| 2026-05-05 12:51 | 40.19516 | 3.40575 | 20261 ft | 341 kts | 184° |
| 2026-05-05 12:52 | 40.17120 | 3.40716 | 19374 ft | 349 kts | 184° |
| 2026-05-05 12:52 | 40.14668 | 3.40870 | 18585 ft | 355 kts | 183° |
| 2026-05-05 12:52 | 40.12217 | 3.41033 | 18078 ft | 350 kts | 183° |
| 2026-05-05 12:52 | 40.09796 | 3.41190 | 17479 ft | 347 kts | 183° |
| 2026-05-05 12:53 | 40.07396 | 3.41342 | 16889 ft | 344 kts | 183° |
| 2026-05-05 12:53 | 40.05025 | 3.41483 | 16535 ft | 335 kts | 183° |
| 2026-05-05 12:53 | 40.02756 | 3.41613 | 16392 ft | 317 kts | 183° |
| 2026-05-05 12:53 | 40.00607 | 3.41739 | 15749 ft | 303 kts | 183° |
| 2026-05-05 12:54 | 39.96489 | 3.41970 | 14079 ft | 295 kts | 182° |
| 2026-05-05 12:54 | 39.94445 | 3.42077 | 13347 ft | 292 kts | 182° |
| 2026-05-05 12:54 | 39.92438 | 3.42181 | 12936 ft | 288 kts | 182° |
| 2026-05-05 12:55 | 39.90439 | 3.42284 | 12530 ft | 286 kts | 182° |
| 2026-05-05 12:55 | 39.88472 | 3.42204 | 12143 ft | 280 kts | 194° |
| 2026-05-05 12:55 | 39.86662 | 3.41390 | 11758 ft | 273 kts | 211° |
| 2026-05-05 12:55 | 39.85163 | 3.39912 | 11389 ft | 270 kts | 227° |
| 2026-05-05 12:56 | 39.84079 | 3.37928 | 11021 ft | 270 kts | 239° |
| 2026-05-05 12:56 | 39.83140 | 3.35813 | 10635 ft | 269 kts | 239° |
| 2026-05-05 12:56 | 39.82197 | 3.33716 | 10273 ft | 268 kts | 239° |
| 2026-05-05 12:56 | 39.81252 | 3.31630 | 9903 ft | 267 kts | 238° |
| 2026-05-05 12:57 | 39.80311 | 3.29560 | 9596 ft | 263 kts | 238° |
| 2026-05-05 12:57 | 39.79403 | 3.27558 | 9465 ft | 251 kts | 238° |
| 2026-05-05 12:57 | 39.78536 | 3.25644 | 9334 ft | 240 kts | 238° |
| 2026-05-05 12:57 | 39.77500 | 3.24007 | 9114 ft | 233 kts | 215° |
| 2026-05-05 12:58 | 39.76008 | 3.23222 | 8754 ft | 234 kts | 195° |
| 2026-05-05 12:58 | 39.74401 | 3.22816 | 8386 ft | 235 kts | 193° |
| 2026-05-05 12:58 | 39.72787 | 3.22461 | 8033 ft | 235 kts | 192° |
| 2026-05-05 12:58 | 39.71172 | 3.22104 | 7716 ft | 235 kts | 192° |
| 2026-05-05 12:59 | 39.69584 | 3.21757 | 7540 ft | 228 kts | 192° |
| 2026-05-05 12:59 | 39.68028 | 3.21416 | 7275 ft | 226 kts | 192° |
| 2026-05-05 12:59 | 39.66495 | 3.21031 | 6957 ft | 223 kts | 201° |
| 2026-05-05 13:00 | 39.64738 | 3.18102 | 6299 ft | 218 kts | 264° |
| 2026-05-05 13:00 | 39.64752 | 3.16103 | 5820 ft | 225 kts | 271° |
| 2026-05-05 13:01 | 39.65082 | 3.09974 | 4687 ft | 229 kts | 272° |
| 2026-05-05 13:01 | 39.65202 | 3.07909 | 4299 ft | 229 kts | 272° |
| 2026-05-05 13:01 | 39.65331 | 3.05840 | 3915 ft | 230 kts | 273° |
| 2026-05-05 13:01 | 39.65447 | 3.03793 | 3549 ft | 232 kts | 272° |
| 2026-05-05 13:02 | 39.65557 | 3.01708 | 3245 ft | 229 kts | 272° |
| 2026-05-05 13:02 | 39.65674 | 2.99702 | 3080 ft | 216 kts | 272° |
| 2026-05-05 13:02 | 39.65576 | 2.97834 | 2995 ft | 202 kts | 252° |
| 2026-05-05 13:02 | 39.64987 | 2.96234 | 3001 ft | 196 kts | 237° |
| 2026-05-05 13:03 | 39.64274 | 2.94721 | 3011 ft | 193 kts | 237° |
| 2026-05-05 13:03 | 39.63623 | 2.93334 | 2948 ft | 169 kts | 238° |
| 2026-05-05 13:03 | 39.63035 | 2.92086 | 2782 ft | 157 kts | 237° |
| 2026-05-05 13:03 | 39.62481 | 2.90905 | 2608 ft | 149 kts | 236° |
| 2026-05-05 13:04 | 39.61951 | 2.89780 | 2423 ft | 144 kts | 237° |
| 2026-05-05 13:04 | 39.61435 | 2.88681 | 2234 ft | 141 kts | 236° |
| 2026-05-05 13:04 | 39.60929 | 2.87603 | 2059 ft | 138 kts | 235° |
| 2026-05-05 13:04 | 39.60435 | 2.86556 | 1880 ft | 135 kts | 236° |
| 2026-05-05 13:05 | 39.59949 | 2.85523 | 1703 ft | 134 kts | 234° |
| 2026-05-05 13:05 | 39.59470 | 2.84503 | 1528 ft | 131 kts | 234° |
| 2026-05-05 13:05 | 39.58987 | 2.83480 | 1350 ft | 137 kts | 236° |
| 2026-05-05 13:05 | 39.58490 | 2.82423 | 1163 ft | 136 kts | 237° |
| 2026-05-05 13:06 | 39.57999 | 2.81377 | 982 ft | 135 kts | 237° |
| 2026-05-05 13:06 | 39.57507 | 2.80342 | 793 ft | 135 kts | 236° |
| 2026-05-05 13:06 | 39.57016 | 2.79308 | 617 ft | 132 kts | 237° |
| 2026-05-05 13:06 | 39.56547 | 2.78308 | 430 ft | 131 kts | 237° |
| 2026-05-05 13:07 | 39.56075 | 2.77313 | 256 ft | 127 kts | 237° |
| 2026-05-05 13:07 | 39.55629 | 2.76350 | 100 ft | 127 kts | 237° |
| 2026-05-05 13:07 | 39.55192 | 2.75424 | 39 ft | 107 kts | 239° |
| 2026-05-05 13:07 | 39.54893 | 2.74791 | 38 ft | 58 kts | 238° |
| 2026-05-05 13:08 | 39.54719 | 2.74427 | 38 ft | 39 kts | 238° |
| 2026-05-05 13:08 | 39.54593 | 2.74155 | 38 ft | 31 kts | 240° |
| 2026-05-05 13:08 | 39.54551 | 2.73919 | 38 ft | 23 kts | 268° |
| 2026-05-05 13:08 | 39.54551 | 2.73757 | 38 ft | 16 kts | 271° |
| 2026-05-05 13:09 | 39.54590 | 2.73645 | 38 ft | 9 kts | 320° |
| 2026-05-05 13:09 | 39.54622 | 2.73575 | 36 ft | 8 kts | 286° |
| 2026-05-05 13:09 | 39.54654 | 2.73530 | 38 ft | 7 kts | 329° |
| 2026-05-05 13:09 | 39.54701 | 2.73493 | 37 ft | 9 kts | 328° |
| 2026-05-05 13:10 | 39.54722 | 2.73461 | 38 ft | 3 kts | 270° |
| 2026-05-05 13:10 | 39.54713 | 2.73431 | 38 ft | 5 kts | 244° |
| 2026-05-05 13:10 | 39.54701 | 2.73403 | 38 ft | 2 kts | 239° |
| 2026-05-05 13:10 | 39.54696 | 2.73394 | 38 ft | 1 kts | 239° |